CMD weather

Cootamundra Airport
New South Wales, Australia

Public forecast

Using degrees Celsius for public forecast. Weather courtesy of forecast.io.

Closest aviation weather report (METAR) to Cootamundra Airport

Closest report is Wagga Wagga City Airport, 42.7 nm (79.1 km) SW. Retrieved 2019/10/19 13:00 UTC (21 minutes ago):

YSWG 191300Z AUTO 00000KT 9999 // NCD 06/00 Q1021

Closest aviation forecast (TAF) to Cootamundra Airport

Forecast is more than 12 hours old.

Closest forecast is Wagga Wagga City Airport, 42.7 nm (79.1 km) SW. Retrieved 2018/05/25 18:03 UTC (1 year ago):

TAF YSWG 251649Z 2518/2608 07008KT CAVOK